Time;durP1;ratioP1;P1;durP2;ratioP2;P2;SDS_P1;SDS_P2;PMS_P1;PMS_P2;Temp;Humidity;BMP_temperature;BMP_pressure;BME280_temperature;BME280_humidity;BME280_pressure;Samples;Min_cycle;Max_cycle;Signal;HPM_P1;HPM_P2
2021/04/30 00:01:59;;;;;;;38.50;26.67;;;7.20;99.90;;;;;;5032587;28;20041;-67
2021/04/30 00:04:24;;;;;;;43.65;26.63;;;7.20;99.90;;;;;;5031319;28;20428;-67
2021/04/30 00:06:50;;;;;;;46.42;26.90;;;7.20;99.90;;;;;;5031169;28;20103;-67
2021/04/30 00:09:17;;;;;;;37.50;23.38;;;7.20;99.90;;;;;;5032145;28;20021;-67
2021/04/30 00:11:43;;;;;;;42.28;25.70;;;7.20;99.90;;;;;;5032361;28;20036;-67
2021/04/30 00:14:09;;;;;;;39.35;25.25;;;7.10;99.90;;;;;;5032432;28;20022;-66
2021/04/30 00:16:39;;;;;;;41.38;24.40;;;7.20;99.90;;;;;;5032352;28;20026;-67
2021/04/30 00:19:05;;;;;;;39.15;24.02;;;7.20;99.90;;;;;;5032010;28;20028;-67
2021/04/30 00:21:31;;;;;;;36.25;22.73;;;7.30;99.90;;;;;;5030984;28;20030;-67
2021/04/30 00:23:57;;;;;;;39.80;21.90;;;7.30;99.90;;;;;;5032201;28;20024;-67
2021/04/30 00:26:23;;;;;;;41.40;24.95;;;7.20;99.90;;;;;;5032327;28;20477;-67
2021/04/30 00:28:49;;;;;;;35.60;22.75;;;7.20;99.90;;;;;;5030653;28;20033;-67
2021/04/30 00:31:18;;;;;;;36.20;21.67;;;7.20;99.90;;;;;;5031797;28;20145;-66
2021/04/30 00:33:43;;;;;;;39.30;23.65;;;7.20;99.90;;;;;;5030630;28;20108;-67
2021/04/30 00:36:09;;;;;;;45.05;25.48;;;7.10;99.90;;;;;;5031935;28;20079;-67
2021/04/30 00:38:35;;;;;;;36.55;24.98;;;7.10;99.90;;;;;;5031793;28;20021;-66
2021/04/30 00:41:00;;;;;;;32.95;22.10;;;7.10;99.90;;;;;;5058300;22;20489;-63
2021/04/30 00:43:26;;;;;;;36.28;23.25;;;7.10;99.90;;;;;;5029599;28;20449;-64
2021/04/30 00:45:53;;;;;;;37.42;23.23;;;7.10;99.90;;;;;;5033515;28;20026;-66
2021/04/30 00:48:22;;;;;;;37.63;22.10;;;7.00;99.90;;;;;;5033591;28;20022;-62
2021/04/30 00:50:49;;;;;;;35.67;20.50;;;7.10;99.90;;;;;;5031722;28;20035;-64
2021/04/30 00:53:15;;;;;;;35.67;23.77;;;7.10;99.90;;;;;;5033287;28;20017;-62
2021/04/30 00:55:40;;;;;;;36.38;24.92;;;7.10;99.90;;;;;;5031811;28;20029;-63
2021/04/30 00:58:07;;;;;;;38.85;24.98;;;7.00;99.90;;;;;;5033385;28;20032;-64
2021/04/30 01:00:36;;;;;;;39.58;25.35;;;7.00;99.90;;;;;;5033175;28;20028;-62
2021/04/30 01:03:02;;;;;;;;;;;7.00;99.90;;;;;;5032448;28;20076;-63
2021/04/30 01:05:28;;;;;;;41.05;25.95;;;7.10;99.90;;;;;;5032947;28;19905;-63
2021/04/30 01:07:53;;;;;;;36.33;24.15;;;7.10;99.90;;;;;;5048595;28;20059;-63
2021/04/30 01:10:20;;;;;;;43.33;28.80;;;7.00;99.90;;;;;;5031471;28;20034;-63
2021/04/30 01:12:47;;;;;;;41.50;27.63;;;7.00;99.90;;;;;;5031720;28;20131;-63
2021/04/30 01:15:14;;;;;;;43.08;28.67;;;7.00;99.90;;;;;;5031937;28;20028;-62
2021/04/30 01:17:40;;;;;;;44.05;28.98;;;7.00;99.90;;;;;;5033468;28;20041;-62
2021/04/30 01:20:08;;;;;;;49.20;30.33;;;7.00;99.90;;;;;;5031519;28;20088;-62
2021/04/30 01:22:39;;;;;;;46.40;29.42;;;7.10;99.90;;;;;;5032970;28;20096;-63
2021/04/30 01:25:07;;;;;;;46.00;30.67;;;7.10;99.90;;;;;;5031727;28;20048;-62
2021/04/30 01:27:33;;;;;;;;;;;7.10;99.90;;;;;;5032959;28;20530;-62
2021/04/30 01:29:59;;;;;;;46.33;32.05;;;7.10;99.90;;;;;;5033054;28;19905;-61
2021/04/30 01:32:25;;;;;;;53.33;31.23;;;7.10;99.90;;;;;;5031880;28;20022;-60
2021/04/30 01:34:53;;;;;;;45.03;33.13;;;7.10;99.90;;;;;;5031474;28;20032;-63
2021/04/30 01:37:18;;;;;;;49.65;33.58;;;7.20;99.90;;;;;;5032852;28;20053;-64
2021/04/30 01:39:44;;;;;;;48.42;34.97;;;7.20;99.90;;;;;;5032469;28;20393;-63
2021/04/30 01:42:10;;;;;;;50.35;35.60;;;7.20;99.90;;;;;;5031049;28;20485;-62
2021/04/30 01:44:36;;;;;;;49.13;34.15;;;7.30;99.90;;;;;;5032854;28;20481;-62
2021/04/30 01:47:03;;;;;;;51.75;35.67;;;7.30;99.90;;;;;;5032502;28;20040;-63
2021/04/30 01:49:28;;;;;;;47.22;35.88;;;7.30;99.90;;;;;;5031925;28;20492;-61
2021/04/30 01:51:54;;;;;;;44.88;33.92;;;7.30;99.90;;;;;;5032400;28;20029;-63
2021/04/30 01:54:21;;;;;;;46.67;32.08;;;7.30;99.90;;;;;;5031131;28;20026;-59
2021/04/30 01:56:46;;;;;;;52.58;35.33;;;7.40;99.90;;;;;;5047833;28;20044;-63
2021/04/30 01:59:12;;;;;;;48.65;34.78;;;7.30;99.90;;;;;;5031448;28;20398;-62
2021/04/30 02:01:37;;;;;;;47.58;35.38;;;7.30;99.90;;;;;;5031863;28;20059;-62
2021/04/30 02:04:10;;;;;;;48.42;34.47;;;7.30;99.90;;;;;;5032765;28;20032;-62
2021/04/30 02:06:36;;;;;;;47.03;34.28;;;7.30;99.90;;;;;;5032549;28;20022;-60
2021/04/30 02:09:02;;;;;;;50.20;36.53;;;7.40;99.90;;;;;;5032127;28;20026;-62
2021/04/30 02:11:28;;;;;;;52.47;37.08;;;7.40;99.90;;;;;;5031056;28;20048;-62
2021/04/30 02:13:54;;;;;;;50.75;36.30;;;7.30;99.90;;;;;;5032356;28;20100;-63
2021/04/30 02:16:19;;;;;;;52.70;37.70;;;7.40;99.90;;;;;;5030952;28;20021;-62
2021/04/30 02:18:45;;;;;;;59.50;38.97;;;7.40;99.90;;;;;;5032029;28;20022;-63
2021/04/30 02:21:11;;;;;;;52.65;38.70;;;7.40;99.90;;;;;;5031198;28;20036;-63
2021/04/30 02:23:36;;;;;;;53.70;38.47;;;7.40;99.90;;;;;;5035286;28;20029;-62
2021/04/30 02:26:02;;;;;;;59.28;38.92;;;7.40;99.90;;;;;;5036058;28;20498;-64
2021/04/30 02:28:28;;;;;;;60.00;40.05;;;7.40;99.90;;;;;;5034984;28;20052;-62
2021/04/30 02:30:53;;;;;;;59.22;37.92;;;7.40;99.90;;;;;;5034676;28;20030;-63
2021/04/30 02:33:19;;;;;;;53.47;36.35;;;7.50;99.90;;;;;;5035980;28;20650;-63
2021/04/30 02:35:47;;;;;;;55.25;40.95;;;7.50;99.90;;;;;;5035944;28;20022;-63
2021/04/30 02:38:15;;;;;;;52.80;36.42;;;7.50;99.90;;;;;;5035892;28;20060;-63
2021/04/30 02:40:42;;;;;;;60.35;38.53;;;7.50;99.90;;;;;;5035605;28;20400;-62
2021/04/30 02:43:11;;;;;;;59.03;40.05;;;7.60;99.90;;;;;;5035721;28;20033;-63
2021/04/30 02:45:42;;;;;;;56.97;39.90;;;7.60;99.90;;;;;;5034447;28;20467;-64
2021/04/30 02:48:23;;;;;;;55.28;40.33;;;7.60;99.90;;;;;;5051499;28;20029;-63
2021/04/30 02:50:48;;;;;;;56.15;39.00;;;7.70;99.90;;;;;;5035580;28;20026;-64
2021/04/30 02:53:14;;;;;;;54.97;39.13;;;7.70;99.90;;;;;;5035601;28;20580;-64
2021/04/30 02:55:39;;;;;;;53.35;38.75;;;7.70;99.90;;;;;;5034716;28;20108;-63
2021/04/30 02:58:05;;;;;;;57.22;37.55;;;7.70;99.90;;;;;;5035618;28;20026;-63
2021/04/30 03:00:31;;;;;;;52.50;37.08;;;7.70;99.90;;;;;;5034121;28;20017;-63
2021/04/30 03:02:57;;;;;;;55.95;37.72;;;7.80;99.90;;;;;;5034018;28;20022;-64
2021/04/30 03:05:24;;;;;;;53.00;37.90;;;7.70;99.90;;;;;;5035775;28;20100;-64
2021/04/30 03:07:50;;;;;;;52.13;36.85;;;7.70;99.90;;;;;;5035718;28;20408;-60
2021/04/30 03:10:16;;;;;;;56.00;38.92;;;7.70;99.90;;;;;;5035441;28;20109;-63
2021/04/30 03:12:43;;;;;;;56.75;40.17;;;7.70;99.90;;;;;;5033945;28;20021;-62
2021/04/30 03:15:12;;;;;;;59.67;39.00;;;7.70;99.90;;;;;;5034024;28;20018;-63
2021/04/30 03:17:38;;;;;;;57.28;37.13;;;7.70;99.90;;;;;;5035303;28;20124;-63
2021/04/30 03:20:04;;;;;;;60.38;40.58;;;7.70;99.90;;;;;;5033632;28;20057;-63
2021/04/30 03:22:30;;;;;;;55.95;38.80;;;7.60;99.90;;;;;;5033844;28;20408;-63
2021/04/30 03:24:55;;;;;;;52.65;37.38;;;7.70;99.90;;;;;;5033990;28;20036;-62
2021/04/30 03:27:21;;;;;;;58.53;40.42;;;7.70;99.90;;;;;;5035425;28;20112;-64
2021/04/30 03:29:46;;;;;;;57.00;39.03;;;7.70;99.90;;;;;;5034014;28;20025;-64
2021/04/30 03:32:13;;;;;;;59.55;38.22;;;7.60;99.90;;;;;;5034932;28;20029;-65
2021/04/30 03:34:39;;;;;;;57.83;38.63;;;7.70;99.90;;;;;;5033871;28;20026;-60
2021/04/30 03:37:05;;;;;;;56.45;38.92;;;7.70;99.90;;;;;;5035049;28;20101;-62
2021/04/30 03:39:30;;;;;;;61.83;38.72;;;7.70;99.90;;;;;;5049998;28;20021;-64
2021/04/30 03:41:56;;;;;;;57.90;38.67;;;7.70;99.90;;;;;;5035419;28;20569;-63
2021/04/30 03:44:22;;;;;;;58.78;40.33;;;7.70;99.90;;;;;;5035799;28;20034;-61
2021/04/30 03:46:48;;;;;;;59.78;41.10;;;7.70;99.90;;;;;;5034200;28;20044;-61
2021/04/30 03:49:13;;;;;;;53.33;37.38;;;7.70;99.90;;;;;;5034549;28;20022;-63
2021/04/30 03:51:39;;;;;;;58.15;40.17;;;7.70;99.90;;;;;;5034367;28;20021;-59
2021/04/30 03:54:05;;;;;;;56.45;39.97;;;7.70;99.90;;;;;;5034585;28;20029;-63
2021/04/30 03:56:30;;;;;;;61.78;40.28;;;7.70;99.90;;;;;;5033169;28;20040;-62
2021/04/30 03:58:56;;;;;;;50.95;38.35;;;7.70;99.90;;;;;;5033212;28;20075;-61
2021/04/30 04:01:22;;;;;;;59.78;42.50;;;7.70;99.90;;;;;;5033540;28;20056;-61
2021/04/30 04:03:48;;;;;;;60.30;40.10;;;7.70;99.90;;;;;;5049894;28;20030;-62
2021/04/30 04:06:13;;;;;;;61.25;43.42;;;7.70;99.90;;;;;;5034552;28;20478;-60
2021/04/30 04:08:39;;;;;;;62.70;42.47;;;7.70;99.90;;;;;;5034181;28;20029;-61
2021/04/30 04:11:05;;;;;;;61.35;40.80;;;7.70;99.90;;;;;;5032605;28;20200;-62
2021/04/30 04:13:30;;;;;;;58.00;40.95;;;7.70;99.90;;;;;;5034109;28;20021;-63
2021/04/30 04:16:02;;;;;;;57.35;40.20;;;7.80;99.90;;;;;;5034104;28;20481;-61
2021/04/30 04:18:29;;;;;;;58.20;41.60;;;7.70;99.90;;;;;;5034317;28;20025;-63
2021/04/30 04:20:55;;;;;;;58.10;40.85;;;7.70;99.90;;;;;;5034094;28;20100;-64
2021/04/30 04:23:20;;;;;;;57.20;41.50;;;7.70;99.90;;;;;;5032900;28;20056;-63
2021/04/30 04:25:46;;;;;;;59.60;38.85;;;7.70;99.90;;;;;;5034289;28;20057;-64
2021/04/30 04:28:12;;;;;;;59.38;42.45;;;7.80;99.90;;;;;;5033934;28;20033;-63
2021/04/30 04:30:38;;;;;;;61.75;41.95;;;7.80;99.90;;;;;;5033462;28;20481;-64
2021/04/30 04:33:03;;;;;;;57.10;37.83;;;7.80;99.90;;;;;;5032398;28;20028;-60
2021/04/30 04:35:29;;;;;;;57.97;40.83;;;7.90;99.90;;;;;;5032505;28;20029;-63
2021/04/30 04:37:55;;;;;;;56.05;40.72;;;7.90;99.90;;;;;;5032453;28;20025;-62
2021/04/30 04:40:22;;;;;;;56.88;38.55;;;7.90;99.90;;;;;;5032502;28;20094;-64
2021/04/30 04:42:48;;;;;;;53.70;38.30;;;7.90;99.90;;;;;;5032139;28;20041;-64
2021/04/30 04:45:15;;;;;;;55.50;39.13;;;7.90;99.90;;;;;;5033520;28;20035;-62
2021/04/30 04:47:41;;;;;;;57.55;39.92;;;7.90;99.90;;;;;;5033949;28;20030;-64
2021/04/30 04:50:08;;;;;;;64.93;41.90;;;7.90;99.90;;;;;;5032455;28;20064;-65
2021/04/30 04:52:34;;;;;;;62.15;40.75;;;7.80;99.90;;;;;;5031862;28;20101;-63
2021/04/30 04:55:00;;;;;;;58.55;41.33;;;7.90;99.90;;;;;;5032633;28;20029;-62
2021/04/30 04:57:28;;;;;;;56.28;39.65;;;8.00;99.90;;;;;;5033569;28;20060;-59
2021/04/30 04:59:53;;;;;;;56.85;39.63;;;8.00;99.90;;;;;;5033252;28;20068;-62
2021/04/30 05:02:19;;;;;;;57.97;40.17;;;8.00;99.90;;;;;;5032180;28;20370;-63
2021/04/30 05:04:45;;;;;;;58.03;40.72;;;8.00;99.90;;;;;;5031789;28;20026;-62
2021/04/30 05:07:10;;;;;;;52.38;38.05;;;8.10;99.90;;;;;;5031855;28;20025;-63
2021/04/30 05:09:36;;;;;;;57.35;38.63;;;8.10;99.90;;;;;;5031801;28;20052;-63
2021/04/30 05:12:02;;;;;;;54.63;38.35;;;8.00;99.90;;;;;;5033171;28;20389;-63
2021/04/30 05:14:27;;;;;;;53.70;38.25;;;8.00;99.90;;;;;;5033206;28;20481;-63
2021/04/30 05:16:53;;;;;;;52.55;37.78;;;8.00;99.90;;;;;;5033529;28;20018;-63
2021/04/30 05:19:19;;;;;;;54.58;38.20;;;8.00;99.90;;;;;;5031744;28;20037;-64
2021/04/30 05:21:46;;;;;;;54.55;37.33;;;8.00;99.90;;;;;;5032760;28;20052;-63
2021/04/30 05:24:12;;;;;;;51.00;36.47;;;8.10;99.90;;;;;;5032867;28;20079;-62
2021/04/30 05:26:38;;;;;;;47.65;34.22;;;8.30;99.90;;;;;;5033158;28;20100;-62
2021/04/30 05:29:05;;;;;;;49.60;34.55;;;8.30;99.90;;;;;;5031168;28;20172;-62
2021/04/30 05:31:32;;;;;;;50.65;35.47;;;8.40;99.90;;;;;;5031347;28;20025;-62
2021/04/30 05:33:57;;;;;;;50.53;37.00;;;8.40;99.90;;;;;;5032976;28;20068;-63
2021/04/30 05:36:23;;;;;;;54.67;36.13;;;8.40;99.90;;;;;;5032797;28;20022;-64
2021/04/30 05:38:49;;;;;;;51.63;37.33;;;8.50;99.90;;;;;;5031181;28;20042;-64
2021/04/30 05:41:15;;;;;;;47.63;34.47;;;8.40;99.90;;;;;;5031247;28;20508;-64
2021/04/30 05:43:41;;;;;;;59.38;37.42;;;8.40;99.90;;;;;;5031641;28;20029;-64
2021/04/30 05:46:06;;;;;;;50.08;35.97;;;8.50;99.90;;;;;;5032566;28;20032;-62
2021/04/30 05:48:32;;;;;;;47.80;34.78;;;8.50;99.90;;;;;;5032900;28;20048;-61
2021/04/30 05:50:57;;;;;;;48.97;33.20;;;8.60;99.90;;;;;;5031145;28;20397;-63
2021/04/30 05:53:24;;;;;;;44.25;32.78;;;8.80;99.90;;;;;;5031648;28;20098;-60
2021/04/30 05:55:49;;;;;;;48.75;34.83;;;8.80;99.90;;;;;;5032312;28;20049;-63
2021/04/30 05:58:15;;;;;;;44.10;32.95;;;8.80;99.90;;;;;;5032280;28;20401;-64
2021/04/30 06:00:41;;;;;;;46.17;34.33;;;8.90;99.90;;;;;;5032329;28;20024;-64
2021/04/30 06:03:07;;;;;;;50.08;34.42;;;8.80;99.90;;;;;;5032112;28;20030;-64
2021/04/30 06:05:32;;;;;;;45.53;35.10;;;8.80;99.90;;;;;;5033142;28;20095;-64
2021/04/30 06:07:58;;;;;;;46.97;34.17;;;8.80;99.90;;;;;;5032985;28;20474;-65
2021/04/30 06:10:24;;;;;;;47.08;31.73;;;8.90;99.90;;;;;;5030843;28;20026;-64
2021/04/30 06:12:49;;;;;;;48.80;33.60;;;9.00;99.90;;;;;;5031086;28;20065;-63
2021/04/30 06:15:15;;;;;;;44.72;32.55;;;9.00;99.90;;;;;;5032445;28;20034;-65
2021/04/30 06:17:41;;;;;;;54.10;37.88;;;9.00;99.90;;;;;;5031391;28;20079;-64
2021/04/30 06:20:07;;;;;;;46.63;33.78;;;8.90;99.90;;;;;;5032199;28;20429;-64
2021/04/30 06:22:33;;;;;;;47.53;33.83;;;8.90;99.90;;;;;;5032454;28;20021;-64
2021/04/30 06:24:59;;;;;;;42.72;32.22;;;9.00;99.90;;;;;;5031086;28;20063;-65
2021/04/30 06:27:25;;;;;;;45.65;33.70;;;9.00;99.90;;;;;;5032496;28;20030;-62
2021/04/30 06:29:51;;;;;;;47.03;32.70;;;9.00;99.90;;;;;;5032126;28;20036;-64
2021/04/30 06:32:16;;;;;;;45.47;33.75;;;9.00;99.90;;;;;;5030816;28;20074;-61
2021/04/30 06:34:42;;;;;;;50.20;33.88;;;9.00;99.90;;;;;;5031128;28;20030;-65
2021/04/30 06:37:08;;;;;;;44.08;32.28;;;9.00;99.90;;;;;;5030854;28;20097;-65
2021/04/30 06:39:33;;;;;;;48.47;31.75;;;9.00;99.90;;;;;;5026177;28;20445;-63
2021/04/30 06:42:02;;;;;;;42.97;31.63;;;9.10;99.90;;;;;;5058659;22;21177;-63
2021/04/30 06:44:31;;;;;;;;;;;9.00;99.90;;;;;;5062929;28;20548;-65
2021/04/30 06:46:57;;;;;;;45.67;32.47;;;9.00;99.90;;;;;;5071521;28;19904;-63
2021/04/30 06:49:23;;;;;;;49.05;33.47;;;9.00;99.90;;;;;;5036988;28;20028;-63
2021/04/30 06:51:49;;;;;;;47.33;32.00;;;9.00;99.90;;;;;;5033247;28;20029;-63
2021/04/30 06:54:16;;;;;;;49.97;32.85;;;9.20;99.90;;;;;;5051480;28;20022;-61
2021/04/30 06:56:41;;;;;;;44.60;31.67;;;9.20;99.90;;;;;;5057488;28;20028;-63
2021/04/30 06:59:08;;;;;;;44.72;32.28;;;;;;;;;;5030697;28;20022;-64
2021/04/30 07:01:33;;;;;;;47.30;31.52;;;9.40;99.90;;;;;;5061820;28;20080;-62
2021/04/30 07:03:59;;;;;;;42.95;31.10;;;;;;;;;;5063384;28;20053;-64
2021/04/30 07:06:25;;;;;;;46.42;30.50;;;;;;;;;;5063384;28;20025;-63
2021/04/30 07:08:52;;;;;;;44.67;32.75;;;;;;;;;;5066244;28;20080;-63
2021/04/30 07:11:18;;;;;;;43.40;30.40;;;;;;;;;;5034741;28;20028;-62
2021/04/30 07:13:44;;;;;;;42.03;28.63;;;;;;;;;;5078648;28;20012;-63
2021/04/30 07:16:11;;;;;;;39.88;29.73;;;;;;;;;;5074506;28;20020;-62
2021/04/30 07:18:37;;;;;;;47.00;30.75;;;;;;;;;;5074599;28;20549;-60
2021/04/30 07:21:04;;;;;;;39.47;27.88;;;;;;;;;;5074478;28;20103;-64
2021/04/30 07:23:31;;;;;;;45.20;27.85;;;;;;;;;;5074473;28;20025;-64
2021/04/30 07:25:57;;;;;;;40.40;27.45;;;;;;;;;;5073150;28;20040;-64
2021/04/30 07:28:23;;;;;;;41.47;29.25;;;;;;;;;;5072919;28;20043;-64
2021/04/30 07:30:50;;;;;;;40.30;29.63;;;;;;;;;;5072891;28;20111;-64
2021/04/30 07:33:16;;;;;;;40.95;30.08;;;;;;;;;;5074270;28;20495;-63
2021/04/30 07:35:42;;;;;;;40.28;29.20;;;;;;;;;;5074040;28;20108;-64
2021/04/30 07:38:12;;;;;;;42.80;31.17;;;;;;;;;;5073450;28;20131;-66
2021/04/30 07:40:40;;;;;;;44.03;31.85;;;;;;;;;;5064282;28;20048;-65
2021/04/30 07:43:08;;;;;;;40.10;30.02;;;;;;;;;;5054655;28;20495;-56
2021/04/30 07:45:35;;;;;;;41.35;29.65;;;;;;;;;;5053311;28;20389;-64
2021/04/30 07:48:01;;;;;;;43.25;30.33;;;;;;;;;;5054703;28;20049;-64
2021/04/30 07:50:27;;;;;;;44.80;29.75;;;;;;;;;;5052227;28;20017;-58
2021/04/30 07:52:53;;;;;;;42.88;31.65;;;;;;;;;;5053692;28;20032;-60
2021/04/30 07:55:19;;;;;;;36.65;28.55;;;9.80;99.90;;;;;;5052523;28;20025;-54
2021/04/30 07:57:45;;;;;;;39.97;28.52;;;10.80;99.90;;;;;;5053038;28;20546;-59
2021/04/30 08:00:11;;;;;;;39.50;29.58;;;10.60;99.90;;;;;;5053848;28;20028;-53
2021/04/30 08:02:37;;;;;;;38.53;28.63;;;10.60;99.90;;;;;;5053755;28;20044;-52
2021/04/30 08:05:03;;;;;;;38.30;29.02;;;10.80;99.90;;;;;;5052514;28;20025;-49
2021/04/30 08:07:28;;;;;;;39.25;28.45;;;10.80;99.90;;;;;;5053761;28;20054;-50
2021/04/30 08:09:55;;;;;;;43.70;29.70;;;10.90;99.90;;;;;;5053201;28;20559;-49
2021/04/30 08:12:21;;;;;;;39.28;27.67;;;10.80;99.90;;;;;;5053797;28;20052;-52
2021/04/30 08:14:47;;;;;;;41.15;28.15;;;10.90;99.90;;;;;;5063696;28;20429;-53
2021/04/30 08:17:13;;;;;;;35.47;27.02;;;11.00;99.90;;;;;;5073652;28;20025;-51
2021/04/30 08:19:39;;;;;;;34.95;26.45;;;11.10;99.90;;;;;;5072742;28;20109;-51
2021/04/30 08:22:05;;;;;;;34.17;25.95;;;11.30;99.90;;;;;;5074276;28;20032;-53
2021/04/30 08:24:31;;;;;;;35.35;26.13;;;11.30;99.90;;;;;;5073338;28;20366;-49
2021/04/30 08:26:56;;;;;;;35.50;27.05;;;11.70;99.90;;;;;;5073188;28;20435;-51
2021/04/30 08:29:22;;;;;;;36.20;26.30;;;11.60;99.90;;;;;;5072938;28;20415;-52
2021/04/30 08:31:48;;;;;;;36.70;27.10;;;11.70;99.90;;;;;;5072920;28;20029;-55
2021/04/30 08:34:13;;;;;;;41.35;30.00;;;12.00;99.90;;;;;;5073474;28;20130;-52
2021/04/30 08:36:40;;;;;;;37.20;27.15;;;11.80;99.90;;;;;;5073396;28;20040;-52
2021/04/30 08:39:06;;;;;;;35.15;28.15;;;11.90;99.90;;;;;;5072790;28;20032;-51
2021/04/30 08:41:35;;;;;;;39.08;28.73;;;11.50;99.90;;;;;;5062678;28;20025;-57
2021/04/30 08:44:02;;;;;;;40.80;29.02;;;11.40;99.90;;;;;;5053228;28;20035;-55
2021/04/30 08:46:28;;;;;;;38.22;28.17;;;11.20;99.90;;;;;;5052931;28;20060;-50
2021/04/30 08:48:54;;;;;;;40.80;29.08;;;11.30;99.90;;;;;;5052953;28;20051;-51
2021/04/30 08:51:19;;;;;;;40.38;29.70;;;11.30;99.90;;;;;;5052996;28;20355;-50
2021/04/30 08:53:45;;;;;;;36.88;28.08;;;11.30;99.90;;;;;;5051163;28;20044;-50
2021/04/30 08:56:11;;;;;;;37.03;28.48;;;11.30;99.90;;;;;;5052663;28;20472;-49
2021/04/30 08:58:38;;;;;;;37.17;28.40;;;11.20;99.90;;;;;;5052565;28;20539;-50
2021/04/30 09:01:05;;;;;;;37.33;27.42;;;11.20;99.90;;;;;;5052547;28;20031;-54
2021/04/30 09:03:35;;;;;;;39.45;29.75;;;10.90;99.90;;;;;;5052402;28;20032;-54
2021/04/30 09:06:02;;;;;;;39.42;27.52;;;10.90;99.90;;;;;;5052401;28;20025;-54
2021/04/30 09:08:28;;;;;;;38.20;27.77;;;10.80;99.90;;;;;;5051187;28;20470;-50
2021/04/30 09:10:56;;;;;;;37.05;26.02;;;10.60;99.90;;;;;;5052011;28;20033;-56
2021/04/30 09:13:23;;;;;;;37.70;25.75;;;10.60;99.90;;;;;;5053070;28;20071;-53
2021/04/30 09:16:09;;;;;;;35.28;26.30;;;10.40;99.90;;;;;;5052591;28;20049;-52
2021/04/30 09:18:35;;;;;;;34.80;24.88;;;10.30;99.90;;;;;;5052002;28;20037;-51
2021/04/30 09:21:12;;;;;;;38.17;26.10;;;10.10;99.90;;;;;;5051079;28;20739;-50
2021/04/30 09:23:48;;;;;;;35.90;23.83;;;10.00;99.90;;;;;;5052045;28;20445;-60
2021/04/30 09:26:28;;;;;;;35.58;24.30;;;10.00;99.90;;;;;;5050455;28;20032;-57
2021/04/30 09:29:13;;;;;;;34.78;24.73;;;10.00;99.90;;;;;;5051675;28;20068;-56
2021/04/30 09:31:45;;;;;;;35.90;26.00;;;9.80;99.90;;;;;;5050910;28;20052;-51
2021/04/30 09:34:29;;;;;;;36.92;25.15;;;9.80;99.90;;;;;;5051053;28;20025;-59
2021/04/30 09:37:04;;;;;;;35.22;25.05;;;9.80;99.90;;;;;;5051743;28;20109;-53
2021/04/30 09:39:47;;;;;;;39.90;26.55;;;9.70;99.90;;;;;;5050358;28;20052;-60
2021/04/30 09:42:16;;;;;;;37.72;26.15;;;9.70;99.90;;;;;;5051593;28;20075;-59
2021/04/30 09:44:47;;;;;;;37.53;25.58;;;9.60;99.90;;;;;;5083777;28;20493;-61
2021/04/30 09:47:22;;;;;;;39.22;26.92;;;9.60;99.90;;;;;;5051666;28;20024;-54
2021/04/30 09:49:49;;;;;;;38.85;26.70;;;;;;;;;;5051487;28;20025;-53
2021/04/30 09:52:16;;;;;;;37.42;27.20;;;;;;;;;;5051740;28;20374;-57
2021/04/30 09:54:42;;;;;;;40.90;29.15;;;;;;;;;;5051908;28;20457;-59
2021/04/30 09:57:23;;;;;;;40.65;29.95;;;;;;;;;;5050299;28;20021;-58
2021/04/30 09:59:53;;;;;;;41.67;30.77;;;;;;;;;;5051493;28;20017;-54
2021/04/30 10:02:20;;;;;;;50.13;35.13;;;;;;;;;;5050229;28;20032;-52
2021/04/30 10:04:47;;;;;;;44.88;29.75;;;;;;;;;;5051792;28;20024;-53
2021/04/30 10:07:15;;;;;;;45.38;33.50;;;;;;;;;;5050464;28;20040;-59
2021/04/30 10:09:42;;;;;;;45.10;32.63;;;;;;;;;;5051925;28;20029;-55
2021/04/30 10:12:19;;;;;;;52.97;36.15;;;;;;;;;;5049991;28;20115;-56
2021/04/30 10:14:45;;;;;;;47.45;33.67;;;;;;;;;;5051461;28;20480;-57
2021/04/30 10:17:13;;;;;;;43.42;32.30;;;;;;;;;;5051485;28;20021;-55
2021/04/30 10:19:42;;;;;;;46.95;34.53;;;;;;;;;;5051507;28;20358;-54
2021/04/30 10:22:08;;;;;;;;;;;;;;;;;;5052019;28;20021;-55
2021/04/30 10:24:34;;;;;;;41.88;30.92;;;;;;;;;;5050359;28;19905;-54
2021/04/30 10:27:00;;;;;;;43.83;31.65;;;;;;;;;;5052137;28;20064;-56
2021/04/30 10:29:27;;;;;;;45.63;32.65;;;;;;;;;;5051656;28;20377;-55
2021/04/30 10:31:56;;;;;;;43.28;30.92;;;;;;;;;;5051446;28;20021;-54
2021/04/30 10:34:30;;;;;;;46.97;34.08;;;;;;;;;;5051735;28;20385;-60
2021/04/30 10:37:01;;;;;;;48.03;34.60;;;;;;;;;;5051518;28;20021;-59
2021/04/30 10:39:28;;;;;;;46.45;33.95;;;;;;;;;;5050205;28;20025;-59
2021/04/30 10:41:55;;;;;;;48.45;33.65;;;;;;;;;;5051363;28;20489;-51
2021/04/30 10:44:28;;;;;;;45.70;33.13;;;;;;;;;;5055387;28;20029;-58
2021/04/30 10:47:10;;;;;;;39.63;29.75;;;;;;;;;;5055128;28;20055;-53
2021/04/30 10:49:37;;;;;;;41.55;29.20;;;;;;;;;;5054710;28;20102;-55
2021/04/30 10:52:06;;;;;;;43.80;31.38;;;;;;;;;;5053738;28;20254;-56
2021/04/30 10:54:33;;;;;;;44.00;31.80;;;;;;;;;;5053571;28;20051;-57
2021/04/30 10:57:07;;;;;;;37.72;27.95;;;;;;;;;;5054979;28;20021;-59
2021/04/30 10:59:36;;;;;;;38.92;28.35;;;;;;;;;;5055082;28;20025;-53
2021/04/30 11:02:26;;;;;;;42.40;29.27;;;;;;;;;;5053251;28;20424;-56
2021/04/30 11:05:01;;;;;;;45.38;31.02;;;;;;;;;;5055975;28;20540;-61
2021/04/30 11:07:27;;;;;;;42.83;28.98;;;;;;;;;;5057947;28;20033;-54
2021/04/30 11:09:53;;;;;;;46.47;31.67;;;;;;;;;;5089084;28;20037;-50
2021/04/30 11:12:21;;;;;;;53.60;29.90;;;;;;;;;;5054469;28;20029;-54
2021/04/30 11:15:08;;;;;;;43.47;32.28;;;9.50;99.90;;;;;;5054965;28;20021;-55
2021/04/30 11:18:02;;;;;;;45.80;31.83;;;9.90;99.90;;;;;;5086956;28;20425;-56
2021/04/30 11:20:34;;;;;;;43.38;30.48;;;10.00;99.90;;;;;;5054477;28;20112;-58
2021/04/30 11:23:20;;;;;;;48.67;32.55;;;10.10;99.90;;;;;;5054355;28;20112;-60
2021/04/30 11:25:57;;;;;;;42.80;29.08;;;10.10;99.90;;;;;;5054414;28;20033;-53
2021/04/30 11:28:32;;;;;;;49.42;32.42;;;10.10;99.90;;;;;;5054238;28;20025;-58
2021/04/30 11:31:07;;;;;;;47.60;34.42;;;10.20;99.90;;;;;;5053404;28;20063;-54
2021/04/30 11:33:34;;;;;;;54.78;34.97;;;10.20;99.90;;;;;;5052742;28;20025;-57
2021/04/30 11:36:02;;;;;;;55.53;35.90;;;10.20;99.90;;;;;;5052708;28;20079;-54
2021/04/30 11:38:34;;;;;;;52.97;33.63;;;10.20;99.90;;;;;;5052752;28;20170;-56
2021/04/30 11:41:01;;;;;;;53.67;35.55;;;10.20;99.90;;;;;;5051338;28;20028;-56
2021/04/30 11:43:27;;;;;;;54.17;35.78;;;10.20;99.90;;;;;;5061303;28;20037;-52
2021/04/30 11:45:54;;;;;;;46.55;32.63;;;10.20;99.90;;;;;;5051492;28;20036;-53
2021/04/30 11:48:23;;;;;;;53.72;33.90;;;10.30;99.90;;;;;;5053391;28;20024;-62
2021/04/30 11:51:06;;;;;;;53.78;33.22;;;10.50;99.90;;;;;;5052686;28;20029;-57
2021/04/30 11:53:35;;;;;;;51.05;34.20;;;10.60;99.90;;;;;;5052923;28;20025;-59
2021/04/30 11:56:02;;;;;;;46.95;31.17;;;10.70;99.90;;;;;;5053256;28;20091;-59
2021/04/30 11:58:35;;;;;;;46.75;31.75;;;11.00;99.90;;;;;;5051924;28;20025;-56
2021/04/30 12:01:00;;;;;;;56.15;34.83;;;11.30;99.90;;;;;;5052903;28;20029;-59
2021/04/30 12:03:26;;;;;;;51.88;34.30;;;11.50;99.90;;;;;;5053545;28;20029;-55
2021/04/30 12:05:53;;;;;;;46.28;30.73;;;;;;;;;;5053781;28;20017;-54
2021/04/30 12:08:19;;;;;;;50.33;32.45;;;;;;;;;;5053333;28;20107;-53
2021/04/30 12:10:45;;;;;;;45.33;31.83;;;11.50;99.90;;;;;;5052919;28;20060;-57
2021/04/30 12:13:19;;;;;;;46.95;32.05;;;12.50;99.90;;;;;;5053150;28;20372;-57
2021/04/30 12:15:45;;;;;;;48.05;33.45;;;12.30;99.90;;;;;;5053124;28;20021;-53
2021/04/30 12:18:11;;;;;;;46.55;29.25;;;12.40;99.90;;;;;;5052094;28;20051;-53
2021/04/30 12:20:39;;;;;;;47.85;30.50;;;12.50;99.90;;;;;;5085403;28;20021;-54
2021/04/30 12:23:07;;;;;;;53.08;32.38;;;12.70;99.90;;;;;;5051482;28;20064;-55
2021/04/30 12:25:36;;;;;;;48.05;31.77;;;;;;;;;;5052819;28;20033;-55
2021/04/30 12:28:21;;;;;;;47.42;30.90;;;;;;;;;;5052974;28;20036;-57
2021/04/30 12:30:49;;;;;;;48.80;32.30;;;;;;;;;;5085158;28;20035;-56
2021/04/30 12:33:29;;;;;;;46.53;34.33;;;;;;;;;;5052933;28;20020;-53
2021/04/30 12:35:57;;;;;;;45.95;31.67;;;;;;;;;;5053221;28;20028;-58
2021/04/30 12:38:23;;;;;;;55.58;34.00;;;;;;;;;;5052814;28;20035;-54
2021/04/30 12:40:49;;;;;;;43.67;28.58;;;;;;;;;;5052370;28;20290;-54
2021/04/30 12:43:22;;;;;;;51.30;32.63;;;;;;;;;;5051307;28;20029;-54
2021/04/30 12:45:48;;;;;;;46.38;31.00;;;;;;;;;;5081756;22;20409;-58
2021/04/30 12:48:14;;;;;;;43.50;30.58;;;;;;;;;;5053303;28;20028;-59
2021/04/30 12:50:40;;;;;;;41.72;29.42;;;;;;;;;;5051799;28;20025;-56
2021/04/30 12:53:07;;;;;;;42.25;29.50;;;;;;;;;;5053290;28;20063;-58
2021/04/30 12:55:37;;;;;;;43.80;31.45;;;;;;;;;;5052155;28;20021;-58
2021/04/30 12:58:14;;;;;;;46.42;30.15;;;;;;;;;;5051785;28;20021;-55
2021/04/30 13:00:59;;;;;;;45.65;29.50;;;;;;;;;;5052882;28;20020;-59